sensor_id;sensor_type;location;lat;lon;timestamp;temperature;humidity
48208;DHT22;33997;53.278;9.708;2022-12-07T00:03:34;2.70;99.90
48208;DHT22;33997;53.278;9.708;2022-12-07T00:06:01;2.70;99.90
48208;DHT22;33997;53.278;9.708;2022-12-07T00:08:27;2.70;99.90
48208;DHT22;33997;53.278;9.708;2022-12-07T00:10:53;2.80;99.90
48208;DHT22;33997;53.278;9.708;2022-12-07T00:13:18;2.80;99.90
48208;DHT22;33997;53.278;9.708;2022-12-07T00:15:44;2.80;99.90
48208;DHT22;33997;53.278;9.708;2022-12-07T00:18:10;2.80;99.90
48208;DHT22;33997;53.278;9.708;2022-12-07T00:20:35;2.80;99.90
48208;DHT22;33997;53.278;9.708;2022-12-07T00:23:00;2.80;99.90
48208;DHT22;33997;53.278;9.708;2022-12-07T00:25:26;2.80;99.90
48208;DHT22;33997;53.278;9.708;2022-12-07T00:27:54;2.90;99.90
48208;DHT22;33997;53.278;9.708;2022-12-07T00:30:22;2.90;99.90
48208;DHT22;33997;53.278;9.708;2022-12-07T00:32:48;2.90;99.90
48208;DHT22;33997;53.278;9.708;2022-12-07T00:35:14;2.90;99.90
48208;DHT22;33997;53.278;9.708;2022-12-07T00:37:39;2.90;99.90
48208;DHT22;33997;53.278;9.708;2022-12-07T00:40:06;2.90;99.90
48208;DHT22;33997;53.278;9.708;2022-12-07T00:42:31;3.00;99.90
48208;DHT22;33997;53.278;9.708;2022-12-07T00:44:57;3.00;99.90
48208;DHT22;33997;53.278;9.708;2022-12-07T00:47:22;3.00;99.90
48208;DHT22;33997;53.278;9.708;2022-12-07T00:49:48;3.00;99.90
48208;DHT22;33997;53.278;9.708;2022-12-07T00:52:13;3.10;99.90
48208;DHT22;33997;53.278;9.708;2022-12-07T00:54:39;3.10;99.90
48208;DHT22;33997;53.278;9.708;2022-12-07T00:57:05;3.10;99.90
48208;DHT22;33997;53.278;9.708;2022-12-07T00:59:31;3.20;99.90
48208;DHT22;33997;53.278;9.708;2022-12-07T01:01:56;3.20;99.90
48208;DHT22;33997;53.278;9.708;2022-12-07T01:04:22;3.10;99.90
48208;DHT22;33997;53.278;9.708;2022-12-07T01:06:47;3.20;99.90
48208;DHT22;33997;53.278;9.708;2022-12-07T01:09:13;3.20;99.90
48208;DHT22;33997;53.278;9.708;2022-12-07T01:11:38;3.20;99.90
48208;DHT22;33997;53.278;9.708;2022-12-07T01:14:04;3.20;99.90
48208;DHT22;33997;53.278;9.708;2022-12-07T01:16:31;3.30;99.90
48208;DHT22;33997;53.278;9.708;2022-12-07T01:18:58;3.20;99.90
48208;DHT22;33997;53.278;9.708;2022-12-07T01:21:27;3.30;99.90
48208;DHT22;33997;53.278;9.708;2022-12-07T01:23:53;3.20;99.90
48208;DHT22;33997;53.278;9.708;2022-12-07T01:26:21;3.20;99.90
48208;DHT22;33997;53.278;9.708;2022-12-07T01:28:47;3.20;99.90
48208;DHT22;33997;53.278;9.708;2022-12-07T01:31:15;3.30;99.90
48208;DHT22;33997;53.278;9.708;2022-12-07T01:33:43;3.20;99.90
48208;DHT22;33997;53.278;9.708;2022-12-07T01:38:44;3.20;99.90
48208;DHT22;33997;53.278;9.708;2022-12-07T01:41:10;3.20;99.90
48208;DHT22;33997;53.278;9.708;2022-12-07T01:43:36;3.20;99.90
48208;DHT22;33997;53.278;9.708;2022-12-07T01:46:03;3.20;99.90
48208;DHT22;33997;53.278;9.708;2022-12-07T01:48:35;3.10;99.90
48208;DHT22;33997;53.278;9.708;2022-12-07T01:51:05;3.10;99.90
48208;DHT22;33997;53.278;9.708;2022-12-07T01:53:36;3.00;99.90
48208;DHT22;33997;53.278;9.708;2022-12-07T01:56:04;2.90;99.90
48208;DHT22;33997;53.278;9.708;2022-12-07T01:58:30;2.90;99.90
48208;DHT22;33997;53.278;9.708;2022-12-07T02:00:59;3.00;99.90
48208;DHT22;33997;53.278;9.708;2022-12-07T02:03:32;2.90;99.90
48208;DHT22;33997;53.278;9.708;2022-12-07T02:05:59;2.90;99.90
48208;DHT22;33997;53.278;9.708;2022-12-07T02:08:25;2.90;99.90
48208;DHT22;33997;53.278;9.708;2022-12-07T02:10:51;2.80;99.90
48208;DHT22;33997;53.278;9.708;2022-12-07T02:13:20;2.70;99.90
48208;DHT22;33997;53.278;9.708;2022-12-07T02:16:04;2.60;99.90
48208;DHT22;33997;53.278;9.708;2022-12-07T02:18:55;2.60;99.90
48208;DHT22;33997;53.278;9.708;2022-12-07T02:21:58;2.60;99.90
48208;DHT22;33997;53.278;9.708;2022-12-07T02:30:15;2.60;99.90
48208;DHT22;33997;53.278;9.708;2022-12-07T02:33:13;2.60;99.90
48208;DHT22;33997;53.278;9.708;2022-12-07T02:38:18;2.50;99.90
48208;DHT22;33997;53.278;9.708;2022-12-07T02:41:05;2.50;99.90
48208;DHT22;33997;53.278;9.708;2022-12-07T02:43:46;2.40;99.90
48208;DHT22;33997;53.278;9.708;2022-12-07T02:46:23;2.40;99.90
48208;DHT22;33997;53.278;9.708;2022-12-07T02:48:50;2.40;99.90
48208;DHT22;33997;53.278;9.708;2022-12-07T02:51:18;2.40;99.90
48208;DHT22;33997;53.278;9.708;2022-12-07T02:53:44;2.40;99.90
48208;DHT22;33997;53.278;9.708;2022-12-07T02:56:30;2.30;99.90
48208;DHT22;33997;53.278;9.708;2022-12-07T03:02:17;2.30;99.90
48208;DHT22;33997;53.278;9.708;2022-12-07T03:05:26;2.20;99.90
48208;DHT22;33997;53.278;9.708;2022-12-07T03:08:04;2.20;99.90
48208;DHT22;33997;53.278;9.708;2022-12-07T03:16:15;2.00;99.90
48208;DHT22;33997;53.278;9.708;2022-12-07T03:19:09;2.00;99.90
48208;DHT22;33997;53.278;9.708;2022-12-07T03:21:41;1.90;99.90
48208;DHT22;33997;53.278;9.708;2022-12-07T03:24:13;1.80;99.90
48208;DHT22;33997;53.278;9.708;2022-12-07T03:26:55;1.80;99.90
48208;DHT22;33997;53.278;9.708;2022-12-07T03:29:28;1.80;99.90
48208;DHT22;33997;53.278;9.708;2022-12-07T03:32:06;1.70;99.90
48208;DHT22;33997;53.278;9.708;2022-12-07T03:34:48;1.70;99.90
48208;DHT22;33997;53.278;9.708;2022-12-07T03:37:23;1.70;99.90
48208;DHT22;33997;53.278;9.708;2022-12-07T03:40:47;1.70;99.90
48208;DHT22;33997;53.278;9.708;2022-12-07T03:42:48;1.70;99.90
48208;DHT22;33997;53.278;9.708;2022-12-07T03:45:15;1.70;99.90
48208;DHT22;33997;53.278;9.708;2022-12-07T03:47:54;1.60;99.90
48208;DHT22;33997;53.278;9.708;2022-12-07T03:50:41;1.60;99.90
48208;DHT22;33997;53.278;9.708;2022-12-07T03:53:15;1.60;99.90
48208;DHT22;33997;53.278;9.708;2022-12-07T03:55:44;1.50;99.90
48208;DHT22;33997;53.278;9.708;2022-12-07T03:58:14;1.50;99.90
48208;DHT22;33997;53.278;9.708;2022-12-07T04:00:42;1.50;99.90
48208;DHT22;33997;53.278;9.708;2022-12-07T04:03:07;1.40;99.90
48208;DHT22;33997;53.278;9.708;2022-12-07T04:05:33;1.40;99.90
48208;DHT22;33997;53.278;9.708;2022-12-07T04:07:59;1.40;99.90
48208;DHT22;33997;53.278;9.708;2022-12-07T04:10:24;1.40;99.90
48208;DHT22;33997;53.278;9.708;2022-12-07T04:12:50;1.40;99.90
48208;DHT22;33997;53.278;9.708;2022-12-07T04:15:15;1.40;99.90
48208;DHT22;33997;53.278;9.708;2022-12-07T04:17:41;1.40;99.90
48208;DHT22;33997;53.278;9.708;2022-12-07T04:20:07;1.50;99.90
48208;DHT22;33997;53.278;9.708;2022-12-07T04:22:33;1.50;99.90
48208;DHT22;33997;53.278;9.708;2022-12-07T04:24:58;1.50;99.90
48208;DHT22;33997;53.278;9.708;2022-12-07T04:27:23;1.60;99.90
48208;DHT22;33997;53.278;9.708;2022-12-07T04:29:49;1.60;99.90
48208;DHT22;33997;53.278;9.708;2022-12-07T04:32:14;1.60;99.90
48208;DHT22;33997;53.278;9.708;2022-12-07T04:34:40;1.70;99.80
48208;DHT22;33997;53.278;9.708;2022-12-07T04:37:05;1.70;99.70
48208;DHT22;33997;53.278;9.708;2022-12-07T04:39:33;1.70;99.70
48208;DHT22;33997;53.278;9.708;2022-12-07T04:41:59;1.70;99.60
48208;DHT22;33997;53.278;9.708;2022-12-07T04:44:26;1.70;99.50
48208;DHT22;33997;53.278;9.708;2022-12-07T04:46:52;1.60;99.50
48208;DHT22;33997;53.278;9.708;2022-12-07T04:49:18;1.60;99.40
48208;DHT22;33997;53.278;9.708;2022-12-07T04:51:44;1.60;99.40
48208;DHT22;33997;53.278;9.708;2022-12-07T04:54:11;1.60;99.50
48208;DHT22;33997;53.278;9.708;2022-12-07T04:56:36;1.60;99.60
48208;DHT22;33997;53.278;9.708;2022-12-07T04:59:02;1.60;99.70
48208;DHT22;33997;53.278;9.708;2022-12-07T05:01:28;1.60;99.70
48208;DHT22;33997;53.278;9.708;2022-12-07T05:03:53;1.60;99.70
48208;DHT22;33997;53.278;9.708;2022-12-07T05:06:19;1.60;99.80
48208;DHT22;33997;53.278;9.708;2022-12-07T05:08:45;1.60;99.80
48208;DHT22;33997;53.278;9.708;2022-12-07T05:11:11;1.60;99.90
48208;DHT22;33997;53.278;9.708;2022-12-07T05:14:01;1.60;99.90
48208;DHT22;33997;53.278;9.708;2022-12-07T05:16:27;1.60;99.90
48208;DHT22;33997;53.278;9.708;2022-12-07T05:18:53;1.50;99.90
48208;DHT22;33997;53.278;9.708;2022-12-07T05:21:18;1.50;99.90
48208;DHT22;33997;53.278;9.708;2022-12-07T05:23:44;1.40;99.90
48208;DHT22;33997;53.278;9.708;2022-12-07T05:26:09;1.40;99.90
48208;DHT22;33997;53.278;9.708;2022-12-07T05:28:35;1.30;99.90
48208;DHT22;33997;53.278;9.708;2022-12-07T05:31:01;1.30;99.90
48208;DHT22;33997;53.278;9.708;2022-12-07T05:33:26;1.20;99.90
48208;DHT22;33997;53.278;9.708;2022-12-07T05:35:52;1.20;99.90
48208;DHT22;33997;53.278;9.708;2022-12-07T05:38:17;1.20;99.90
48208;DHT22;33997;53.278;9.708;2022-12-07T05:40:43;1.10;99.90
48208;DHT22;33997;53.278;9.708;2022-12-07T05:43:08;1.10;99.90
48208;DHT22;33997;53.278;9.708;2022-12-07T05:45:34;1.10;99.90
48208;DHT22;33997;53.278;9.708;2022-12-07T05:47:59;1.10;99.90
48208;DHT22;33997;53.278;9.708;2022-12-07T05:50:25;1.10;99.90
48208;DHT22;33997;53.278;9.708;2022-12-07T05:52:50;1.10;99.90
48208;DHT22;33997;53.278;9.708;2022-12-07T05:55:16;1.00;99.90
48208;DHT22;33997;53.278;9.708;2022-12-07T05:57:41;1.00;99.90
48208;DHT22;33997;53.278;9.708;2022-12-07T06:00:27;1.00;99.90
48208;DHT22;33997;53.278;9.708;2022-12-07T06:02:52;1.00;99.90
48208;DHT22;33997;53.278;9.708;2022-12-07T06:05:17;1.10;99.90
48208;DHT22;33997;53.278;9.708;2022-12-07T06:07:43;1.10;99.90
48208;DHT22;33997;53.278;9.708;2022-12-07T06:10:09;1.10;99.90
48208;DHT22;33997;53.278;9.708;2022-12-07T06:12:34;1.10;99.90
48208;DHT22;33997;53.278;9.708;2022-12-07T06:15:00;1.10;99.90
48208;DHT22;33997;53.278;9.708;2022-12-07T06:17:26;1.10;99.90
48208;DHT22;33997;53.278;9.708;2022-12-07T06:19:51;1.20;99.90
48208;DHT22;33997;53.278;9.708;2022-12-07T06:22:17;1.20;99.90
48208;DHT22;33997;53.278;9.708;2022-12-07T06:24:43;1.30;99.90
48208;DHT22;33997;53.278;9.708;2022-12-07T06:27:09;1.30;99.90
48208;DHT22;33997;53.278;9.708;2022-12-07T06:29:35;1.40;99.90
48208;DHT22;33997;53.278;9.708;2022-12-07T06:32:00;1.40;99.90
48208;DHT22;33997;53.278;9.708;2022-12-07T06:34:27;1.40;99.90
48208;DHT22;33997;53.278;9.708;2022-12-07T06:36:53;1.40;99.90
48208;DHT22;33997;53.278;9.708;2022-12-07T06:39:22;1.40;99.90
48208;DHT22;33997;53.278;9.708;2022-12-07T06:41:47;1.50;99.90
48208;DHT22;33997;53.278;9.708;2022-12-07T06:44:13;1.40;99.90
48208;DHT22;33997;53.278;9.708;2022-12-07T06:46:38;1.50;99.90
48208;DHT22;33997;53.278;9.708;2022-12-07T06:49:04;1.50;99.90
48208;DHT22;33997;53.278;9.708;2022-12-07T06:51:31;1.50;99.90
48208;DHT22;33997;53.278;9.708;2022-12-07T06:53:57;1.50;99.90
48208;DHT22;33997;53.278;9.708;2022-12-07T06:56:23;1.50;99.90
48208;DHT22;33997;53.278;9.708;2022-12-07T06:58:49;1.50;99.90
48208;DHT22;33997;53.278;9.708;2022-12-07T07:01:16;1.50;99.90
48208;DHT22;33997;53.278;9.708;2022-12-07T07:03:42;1.60;99.90
48208;DHT22;33997;53.278;9.708;2022-12-07T07:06:08;1.60;99.90
48208;DHT22;33997;53.278;9.708;2022-12-07T07:08:35;1.60;99.90
48208;DHT22;33997;53.278;9.708;2022-12-07T07:11:01;1.60;99.90
48208;DHT22;33997;53.278;9.708;2022-12-07T07:13:27;1.50;99.90
48208;DHT22;33997;53.278;9.708;2022-12-07T07:15:53;1.50;99.90
48208;DHT22;33997;53.278;9.708;2022-12-07T07:18:19;1.60;99.90
48208;DHT22;33997;53.278;9.708;2022-12-07T07:20:44;1.50;99.90
48208;DHT22;33997;53.278;9.708;2022-12-07T07:23:10;1.50;99.90
48208;DHT22;33997;53.278;9.708;2022-12-07T07:25:35;1.50;99.90
48208;DHT22;33997;53.278;9.708;2022-12-07T07:28:01;1.50;99.90
48208;DHT22;33997;53.278;9.708;2022-12-07T07:30:27;1.50;99.90
48208;DHT22;33997;53.278;9.708;2022-12-07T07:33:00;1.50;99.90
48208;DHT22;33997;53.278;9.708;2022-12-07T07:35:27;1.50;99.90
48208;DHT22;33997;53.278;9.708;2022-12-07T07:37:52;1.50;99.90
48208;DHT22;33997;53.278;9.708;2022-12-07T07:40:18;1.60;99.90
48208;DHT22;33997;53.278;9.708;2022-12-07T07:42:43;1.60;99.90
48208;DHT22;33997;53.278;9.708;2022-12-07T07:45:09;1.60;99.90
48208;DHT22;33997;53.278;9.708;2022-12-07T07:47:35;1.60;99.90
48208;DHT22;33997;53.278;9.708;2022-12-07T07:50:00;1.70;99.90
48208;DHT22;33997;53.278;9.708;2022-12-07T07:52:26;1.60;99.90
48208;DHT22;33997;53.278;9.708;2022-12-07T07:54:52;1.60;99.90
48208;DHT22;33997;53.278;9.708;2022-12-07T07:57:18;1.60;99.90
48208;DHT22;33997;53.278;9.708;2022-12-07T07:59:43;1.60;99.90
48208;DHT22;33997;53.278;9.708;2022-12-07T08:02:14;1.60;99.90
48208;DHT22;33997;53.278;9.708;2022-12-07T08:04:40;1.70;99.90
48208;DHT22;33997;53.278;9.708;2022-12-07T08:07:05;1.60;99.90
48208;DHT22;33997;53.278;9.708;2022-12-07T08:09:31;1.70;99.90
48208;DHT22;33997;53.278;9.708;2022-12-07T08:11:57;1.70;99.90
48208;DHT22;33997;53.278;9.708;2022-12-07T08:14:23;1.80;99.90
48208;DHT22;33997;53.278;9.708;2022-12-07T08:16:49;1.70;99.90
48208;DHT22;33997;53.278;9.708;2022-12-07T08:19:14;1.70;99.90
48208;DHT22;33997;53.278;9.708;2022-12-07T08:21:40;1.80;99.90
48208;DHT22;33997;53.278;9.708;2022-12-07T08:24:05;1.80;99.90
48208;DHT22;33997;53.278;9.708;2022-12-07T08:26:31;1.80;99.90
48208;DHT22;33997;53.278;9.708;2022-12-07T08:28:56;1.80;99.90
48208;DHT22;33997;53.278;9.708;2022-12-07T08:31:22;1.90;99.90
48208;DHT22;33997;53.278;9.708;2022-12-07T08:33:48;1.90;99.90
48208;DHT22;33997;53.278;9.708;2022-12-07T08:36:14;1.90;99.90
48208;DHT22;33997;53.278;9.708;2022-12-07T08:38:41;2.00;99.90
48208;DHT22;33997;53.278;9.708;2022-12-07T08:41:07;2.00;99.90
48208;DHT22;33997;53.278;9.708;2022-12-07T08:43:33;2.00;99.90
48208;DHT22;33997;53.278;9.708;2022-12-07T08:48:55;2.10;99.90
48208;DHT22;33997;53.278;9.708;2022-12-07T08:51:22;2.10;99.90
48208;DHT22;33997;53.278;9.708;2022-12-07T08:53:49;2.10;99.90
48208;DHT22;33997;53.278;9.708;2022-12-07T08:56:15;2.10;99.90
48208;DHT22;33997;53.278;9.708;2022-12-07T08:58:40;2.20;99.90
48208;DHT22;33997;53.278;9.708;2022-12-07T09:01:06;2.20;99.90
48208;DHT22;33997;53.278;9.708;2022-12-07T09:03:31;2.20;99.90
48208;DHT22;33997;53.278;9.708;2022-12-07T09:05:57;2.30;99.90
48208;DHT22;33997;53.278;9.708;2022-12-07T09:08:26;2.40;99.90
48208;DHT22;33997;53.278;9.708;2022-12-07T09:10:54;2.40;99.90
48208;DHT22;33997;53.278;9.708;2022-12-07T09:13:19;2.40;99.80
48208;DHT22;33997;53.278;9.708;2022-12-07T09:15:45;2.40;99.80
48208;DHT22;33997;53.278;9.708;2022-12-07T09:18:10;2.40;99.70
48208;DHT22;33997;53.278;9.708;2022-12-07T09:20:36;2.50;99.70
48208;DHT22;33997;53.278;9.708;2022-12-07T09:23:01;2.50;99.50
48208;DHT22;33997;53.278;9.708;2022-12-07T09:25:27;2.50;99.50
48208;DHT22;33997;53.278;9.708;2022-12-07T09:27:57;2.50;99.20
48208;DHT22;33997;53.278;9.708;2022-12-07T09:30:23;2.50;99.10
48208;DHT22;33997;53.278;9.708;2022-12-07T09:32:48;2.40;99.00
48208;DHT22;33997;53.278;9.708;2022-12-07T09:35:14;2.50;99.10
48208;DHT22;33997;53.278;9.708;2022-12-07T09:37:40;2.50;99.00
48208;DHT22;33997;53.278;9.708;2022-12-07T09:40:06;2.50;99.10
48208;DHT22;33997;53.278;9.708;2022-12-07T09:42:38;2.60;99.10
48208;DHT22;33997;53.278;9.708;2022-12-07T09:45:17;2.40;98.90
48208;DHT22;33997;53.278;9.708;2022-12-07T09:47:44;2.50;99.00
48208;DHT22;33997;53.278;9.708;2022-12-07T09:50:22;2.60;99.00
48208;DHT22;33997;53.278;9.708;2022-12-07T09:52:50;2.60;98.90
48208;DHT22;33997;53.278;9.708;2022-12-07T09:55:21;2.60;98.90
48208;DHT22;33997;53.278;9.708;2022-12-07T09:57:48;2.60;98.90
48208;DHT22;33997;53.278;9.708;2022-12-07T10:00:16;2.70;98.90
48208;DHT22;33997;53.278;9.708;2022-12-07T10:03:04;2.80;98.80
48208;DHT22;33997;53.278;9.708;2022-12-07T10:05:36;2.90;98.90
48208;DHT22;33997;53.278;9.708;2022-12-07T10:08:03;3.00;98.80
48208;DHT22;33997;53.278;9.708;2022-12-07T10:10:34;3.10;98.60
48208;DHT22;33997;53.278;9.708;2022-12-07T10:13:02;3.10;98.50
48208;DHT22;33997;53.278;9.708;2022-12-07T10:18:38;3.00;98.40
48208;DHT22;33997;53.278;9.708;2022-12-07T10:23:42;3.10;98.30
48208;DHT22;33997;53.278;9.708;2022-12-07T10:26:21;3.10;98.40
48208;DHT22;33997;53.278;9.708;2022-12-07T10:28:50;3.10;98.40
48208;DHT22;33997;53.278;9.708;2022-12-07T10:31:18;3.10;98.20
48208;DHT22;33997;53.278;9.708;2022-12-07T10:33:55;3.20;98.40
48208;DHT22;33997;53.278;9.708;2022-12-07T10:36:42;3.30;98.10
48208;DHT22;33997;53.278;9.708;2022-12-07T10:39:21;3.40;97.90
48208;DHT22;33997;53.278;9.708;2022-12-07T10:41:55;3.50;97.90
48208;DHT22;33997;53.278;9.708;2022-12-07T10:44:24;3.60;97.70
48208;DHT22;33997;53.278;9.708;2022-12-07T10:47:08;3.60;97.50
48208;DHT22;33997;53.278;9.708;2022-12-07T10:50:17;3.50;97.50
48208;DHT22;33997;53.278;9.708;2022-12-07T10:58:27;3.20;97.40
48208;DHT22;33997;53.278;9.708;2022-12-07T11:01:23;3.30;97.60
48208;DHT22;33997;53.278;9.708;2022-12-07T11:09:57;3.30;97.70
48208;DHT22;33997;53.278;9.708;2022-12-07T11:15:28;3.30;97.70
48208;DHT22;33997;53.278;9.708;2022-12-07T11:18:14;3.30;97.90
48208;DHT22;33997;53.278;9.708;2022-12-07T11:20:53;3.30;97.90
48208;DHT22;33997;53.278;9.708;2022-12-07T11:23:43;3.40;98.10
48208;DHT22;33997;53.278;9.708;2022-12-07T11:26:33;3.40;98.00
48208;DHT22;33997;53.278;9.708;2022-12-07T11:37:50;3.60;98.20
48208;DHT22;33997;53.278;9.708;2022-12-07T11:40:28;3.60;98.00
48208;DHT22;33997;53.278;9.708;2022-12-07T11:43:06;3.60;97.90
48208;DHT22;33997;53.278;9.708;2022-12-07T11:45:33;3.60;97.70
48208;DHT22;33997;53.278;9.708;2022-12-07T11:48:06;3.70;97.80
48208;DHT22;33997;53.278;9.708;2022-12-07T11:50:45;3.70;97.60
48208;DHT22;33997;53.278;9.708;2022-12-07T11:53:18;3.70;97.50
48208;DHT22;33997;53.278;9.708;2022-12-07T11:55:52;3.70;97.50
48208;DHT22;33997;53.278;9.708;2022-12-07T11:58:35;3.80;97.50
48208;DHT22;33997;53.278;9.708;2022-12-07T12:04:19;3.70;97.10
48208;DHT22;33997;53.278;9.708;2022-12-07T12:06:47;3.70;97.00
48208;DHT22;33997;53.278;9.708;2022-12-07T12:09:19;3.70;97.00
48208;DHT22;33997;53.278;9.708;2022-12-07T12:12:17;3.70;97.00
48208;DHT22;33997;53.278;9.708;2022-12-07T12:20:55;3.80;97.10
48208;DHT22;33997;53.278;9.708;2022-12-07T12:23:50;3.70;96.80
48208;DHT22;33997;53.278;9.708;2022-12-07T12:26:22;3.70;96.90
48208;DHT22;33997;53.278;9.708;2022-12-07T12:33:48;3.70;96.70
48208;DHT22;33997;53.278;9.708;2022-12-07T12:39:12;3.70;96.50
48208;DHT22;33997;53.278;9.708;2022-12-07T12:46:47;3.70;96.10
48208;DHT22;33997;53.278;9.708;2022-12-07T12:51:45;3.70;95.90
48208;DHT22;33997;53.278;9.708;2022-12-07T12:54:14;3.80;95.80
48208;DHT22;33997;53.278;9.708;2022-12-07T12:56:53;3.80;95.70
48208;DHT22;33997;53.278;9.708;2022-12-07T12:59:28;3.70;95.30
48208;DHT22;33997;53.278;9.708;2022-12-07T13:02:46;3.60;95.10
48208;DHT22;33997;53.278;9.708;2022-12-07T13:04:52;3.60;95.10
48208;DHT22;33997;53.278;9.708;2022-12-07T13:26:22;3.40;96.90
48208;DHT22;33997;53.278;9.708;2022-12-07T13:28:49;3.40;96.90
48208;DHT22;33997;53.278;9.708;2022-12-07T13:31:30;3.40;96.90
48208;DHT22;33997;53.278;9.708;2022-12-07T13:33:57;3.40;96.90
48208;DHT22;33997;53.278;9.708;2022-12-07T13:36:27;3.50;96.90
48208;DHT22;33997;53.278;9.708;2022-12-07T13:38:59;3.50;96.90
48208;DHT22;33997;53.278;9.708;2022-12-07T13:41:26;3.50;96.80
48208;DHT22;33997;53.278;9.708;2022-12-07T13:46:25;3.60;96.60
48208;DHT22;33997;53.278;9.708;2022-12-07T13:48:52;3.50;96.60
48208;DHT22;33997;53.278;9.708;2022-12-07T13:51:20;3.40;96.70
48208;DHT22;33997;53.278;9.708;2022-12-07T13:53:52;3.40;96.70
48208;DHT22;33997;53.278;9.708;2022-12-07T13:56:17;3.40;96.70
48208;DHT22;33997;53.278;9.708;2022-12-07T13:58:43;3.40;96.60
48208;DHT22;33997;53.278;9.708;2022-12-07T14:01:09;3.30;96.70
48208;DHT22;33997;53.278;9.708;2022-12-07T14:03:36;3.40;96.80
48208;DHT22;33997;53.278;9.708;2022-12-07T14:06:18;3.30;96.80
48208;DHT22;33997;53.278;9.708;2022-12-07T14:08:45;3.30;97.00
48208;DHT22;33997;53.278;9.708;2022-12-07T14:11:17;3.20;97.10
48208;DHT22;33997;53.278;9.708;2022-12-07T14:16:27;3.10;97.30
48208;DHT22;33997;53.278;9.708;2022-12-07T14:18:54;3.10;97.40
48208;DHT22;33997;53.278;9.708;2022-12-07T14:21:22;3.10;97.50
48208;DHT22;33997;53.278;9.708;2022-12-07T14:24:12;3.10;97.60
48208;DHT22;33997;53.278;9.708;2022-12-07T14:26:39;3.10;97.60
48208;DHT22;33997;53.278;9.708;2022-12-07T14:31:54;3.00;97.70
48208;DHT22;33997;53.278;9.708;2022-12-07T14:34:20;2.90;97.70
48208;DHT22;33997;53.278;9.708;2022-12-07T14:36:46;2.90;97.70
48208;DHT22;33997;53.278;9.708;2022-12-07T14:39:12;2.80;97.80
48208;DHT22;33997;53.278;9.708;2022-12-07T14:41:37;2.80;97.90
48208;DHT22;33997;53.278;9.708;2022-12-07T14:44:20;2.80;98.00
48208;DHT22;33997;53.278;9.708;2022-12-07T14:46:46;2.70;98.00
48208;DHT22;33997;53.278;9.708;2022-12-07T14:49:12;2.70;98.10
48208;DHT22;33997;53.278;9.708;2022-12-07T14:51:39;2.60;98.20
48208;DHT22;33997;53.278;9.708;2022-12-07T14:54:06;2.50;98.20
48208;DHT22;33997;53.278;9.708;2022-12-07T14:56:36;2.50;98.30
48208;DHT22;33997;53.278;9.708;2022-12-07T14:59:02;2.50;98.40
48208;DHT22;33997;53.278;9.708;2022-12-07T15:01:27;2.50;98.40
48208;DHT22;33997;53.278;9.708;2022-12-07T15:03:53;2.40;98.40
48208;DHT22;33997;53.278;9.708;2022-12-07T15:06:18;2.50;98.50
48208;DHT22;33997;53.278;9.708;2022-12-07T15:08:44;2.40;98.40
48208;DHT22;33997;53.278;9.708;2022-12-07T15:11:13;2.30;98.50
48208;DHT22;33997;53.278;9.708;2022-12-07T15:13:38;2.30;98.50
48208;DHT22;33997;53.278;9.708;2022-12-07T15:16:22;2.20;98.50
48208;DHT22;33997;53.278;9.708;2022-12-07T15:18:48;2.20;98.50
48208;DHT22;33997;53.278;9.708;2022-12-07T15:21:14;2.20;98.60
48208;DHT22;33997;53.278;9.708;2022-12-07T15:23:40;2.20;98.70
48208;DHT22;33997;53.278;9.708;2022-12-07T15:26:05;2.20;98.70
48208;DHT22;33997;53.278;9.708;2022-12-07T15:28:31;2.10;98.60
48208;DHT22;33997;53.278;9.708;2022-12-07T15:30:56;2.10;98.70
48208;DHT22;33997;53.278;9.708;2022-12-07T15:33:22;2.10;98.70
48208;DHT22;33997;53.278;9.708;2022-12-07T15:35:47;2.10;98.60
48208;DHT22;33997;53.278;9.708;2022-12-07T15:38:13;2.10;98.60
48208;DHT22;33997;53.278;9.708;2022-12-07T15:40:38;2.00;98.60
48208;DHT22;33997;53.278;9.708;2022-12-07T15:43:04;2.00;98.60
48208;DHT22;33997;53.278;9.708;2022-12-07T15:45:30;2.00;98.60
48208;DHT22;33997;53.278;9.708;2022-12-07T15:47:55;1.90;98.60
48208;DHT22;33997;53.278;9.708;2022-12-07T15:50:21;1.90;98.70
48208;DHT22;33997;53.278;9.708;2022-12-07T15:52:47;1.80;98.70
48208;DHT22;33997;53.278;9.708;2022-12-07T15:55:13;1.80;98.70
48208;DHT22;33997;53.278;9.708;2022-12-07T15:57:40;1.80;98.70
48208;DHT22;33997;53.278;9.708;2022-12-07T16:00:07;1.80;98.70
48208;DHT22;33997;53.278;9.708;2022-12-07T16:02:34;1.80;98.80
48208;DHT22;33997;53.278;9.708;2022-12-07T16:04:59;1.70;98.80
48208;DHT22;33997;53.278;9.708;2022-12-07T16:07:25;1.70;98.90
48208;DHT22;33997;53.278;9.708;2022-12-07T16:09:50;1.60;98.90
48208;DHT22;33997;53.278;9.708;2022-12-07T16:12:16;1.60;99.10
48208;DHT22;33997;53.278;9.708;2022-12-07T16:14:42;1.60;99.10
48208;DHT22;33997;53.278;9.708;2022-12-07T16:17:08;1.60;99.10
48208;DHT22;33997;53.278;9.708;2022-12-07T16:19:35;1.60;99.20
48208;DHT22;33997;53.278;9.708;2022-12-07T16:22:01;1.60;99.20
48208;DHT22;33997;53.278;9.708;2022-12-07T16:24:27;1.60;99.30
48208;DHT22;33997;53.278;9.708;2022-12-07T16:26:52;1.70;99.30
48208;DHT22;33997;53.278;9.708;2022-12-07T16:29:20;1.60;99.40
48208;DHT22;33997;53.278;9.708;2022-12-07T16:31:47;1.60;99.30
48208;DHT22;33997;53.278;9.708;2022-12-07T16:34:12;1.60;99.30
48208;DHT22;33997;53.278;9.708;2022-12-07T16:36:38;1.60;99.40
48208;DHT22;33997;53.278;9.708;2022-12-07T16:39:05;1.60;99.40
48208;DHT22;33997;53.278;9.708;2022-12-07T16:41:31;1.60;99.40
48208;DHT22;33997;53.278;9.708;2022-12-07T16:43:57;1.60;99.50
48208;DHT22;33997;53.278;9.708;2022-12-07T16:46:23;1.60;99.50
48208;DHT22;33997;53.278;9.708;2022-12-07T16:48:49;1.60;99.50
48208;DHT22;33997;53.278;9.708;2022-12-07T16:51:14;1.60;99.40
48208;DHT22;33997;53.278;9.708;2022-12-07T16:53:41;1.60;99.40
48208;DHT22;33997;53.278;9.708;2022-12-07T16:56:15;1.60;99.40
48208;DHT22;33997;53.278;9.708;2022-12-07T16:58:42;1.60;99.40
48208;DHT22;33997;53.278;9.708;2022-12-07T17:01:19;1.50;99.40
48208;DHT22;33997;53.278;9.708;2022-12-07T17:03:47;1.50;99.40
48208;DHT22;33997;53.278;9.708;2022-12-07T17:06:16;1.40;99.40
48208;DHT22;33997;53.278;9.708;2022-12-07T17:08:42;1.40;99.40
48208;DHT22;33997;53.278;9.708;2022-12-07T17:11:28;1.40;99.50
48208;DHT22;33997;53.278;9.708;2022-12-07T17:13:56;1.30;99.50
48208;DHT22;33997;53.278;9.708;2022-12-07T17:16:40;1.30;99.60
48208;DHT22;33997;53.278;9.708;2022-12-07T17:19:08;1.20;99.50
48208;DHT22;33997;53.278;9.708;2022-12-07T17:21:34;1.20;99.60
48208;DHT22;33997;53.278;9.708;2022-12-07T17:24:00;1.10;99.60
48208;DHT22;33997;53.278;9.708;2022-12-07T17:26:27;1.10;99.60
48208;DHT22;33997;53.278;9.708;2022-12-07T17:28:53;1.00;99.60
48208;DHT22;33997;53.278;9.708;2022-12-07T17:31:20;1.00;99.70
48208;DHT22;33997;53.278;9.708;2022-12-07T17:33:46;1.00;99.70
48208;DHT22;33997;53.278;9.708;2022-12-07T17:36:17;1.00;99.70
48208;DHT22;33997;53.278;9.708;2022-12-07T17:38:44;0.90;99.70
48208;DHT22;33997;53.278;9.708;2022-12-07T17:41:18;0.90;99.80
48208;DHT22;33997;53.278;9.708;2022-12-07T17:44:04;0.90;99.80